Time;durP1;ratioP1;P1;durP2;ratioP2;P2;SDS_P1;SDS_P2;PMS_P1;PMS_P2;Temp;Humidity;BMP_temperature;BMP_pressure;BME280_temperature;BME280_humidity;BME280_pressure;Samples;Min_cycle;Max_cycle;Signal;HPM_P1;HPM_P2
2021/07/31 00:01:08;;;;;;;38.02;18.15;;;;;;;25.28;66.54;100988.53;1662944;86;21785;-74
2021/07/31 00:03:41;;;;;;;35.92;18.23;;;;;;;25.25;66.54;100985.83;1662697;86;21221;-75
2021/07/31 00:06:15;;;;;;;37.78;17.55;;;;;;;25.22;66.70;100989.90;1659712;85;21268;-69
2021/07/31 00:08:48;;;;;;;32.17;17.00;;;;;;;25.19;66.79;100995.73;1662786;86;21208;-76
2021/07/31 00:11:20;;;;;;;;;;;;;;;25.17;66.89;100998.06;1665913;86;21271;-71
2021/07/31 00:13:53;;;;;;;34.27;17.42;;;;;;;25.17;66.94;100994.41;1663928;85;20227;-73
2021/07/31 00:16:25;;;;;;;27.87;18.05;;;;;;;25.16;67.01;100997.83;1662976;86;21236;-75
2021/07/31 00:18:58;;;;;;;39.80;19.17;;;;;;;25.17;67.02;100987.30;1668271;85;21725;-74
2021/07/31 00:21:30;;;;;;;32.93;17.40;;;;;;;25.19;67.02;100989.20;1696270;79;21455;-71
2021/07/31 00:24:03;;;;;;;36.00;16.40;;;;;;;25.17;67.05;100984.46;1760426;81;21347;-72
2021/07/31 00:26:57;;;;;;;34.23;16.77;;;;;;;25.13;67.17;100987.75;1789922;80;21208;-71
2021/07/31 00:29:30;;;;;;;35.00;17.73;;;;;;;25.07;67.31;100986.31;1789958;80;21203;-71
2021/07/31 00:32:03;;;;;;;44.05;19.05;;;;;;;25.08;67.43;100980.86;1789842;80;21691;-71
2021/07/31 00:34:36;;;;;;;39.33;17.50;;;;;;;25.13;67.45;100976.38;1760355;81;21881;-70
2021/07/31 00:37:09;;;;;;;49.30;18.67;;;;;;;25.14;67.35;100971.77;1789961;80;21146;-71
2021/07/31 00:39:42;;;;;;;44.95;17.75;;;;;;;25.14;67.38;100975.19;1789809;80;21181;-74
2021/07/31 00:42:14;;;;;;;44.40;15.32;;;;;;;25.12;67.39;100970.46;1789863;80;21153;-73
2021/07/31 00:44:48;;;;;;;32.17;16.97;;;;;;;25.10;67.43;100972.22;1760739;81;21374;-73
2021/07/31 00:47:22;;;;;;;41.70;17.52;;;;;;;25.10;67.44;100971.38;1789843;80;21168;-71
2021/07/31 00:49:54;;;;;;;37.58;16.85;;;;;;;25.11;67.46;100983.02;1789759;80;21174;-73
2021/07/31 00:52:27;;;;;;;51.07;18.67;;;;;;;25.08;67.45;100972.33;1789949;80;21633;-72
2021/07/31 00:55:00;;;;;;;26.80;17.00;;;;;;;25.06;67.46;100968.41;1760553;81;21335;-75
2021/07/31 00:57:32;;;;;;;;;;;;;;;25.07;67.46;100965.83;1792473;80;21160;-73
2021/07/31 01:00:13;;;;;;;37.90;16.10;;;;;;;25.03;67.52;100968.28;1786278;80;20591;-73
2021/07/31 01:02:46;;;;;;;40.75;17.27;;;;;;;24.98;67.62;100964.23;1789966;80;21694;-72
2021/07/31 01:05:19;;;;;;;27.22;16.52;;;;;;;25.00;67.66;100964.73;1789796;80;21726;-72
2021/07/31 01:07:52;;;;;;;39.55;17.95;;;;;;;25.01;67.72;100958.70;1760478;81;21193;-72
2021/07/31 01:10:26;;;;;;;39.03;17.87;;;;;;;25.05;67.65;100958.23;1789652;80;21851;-73
2021/07/31 01:13:01;;;;;;;39.45;16.32;;;;;;;25.03;67.59;100950.64;1789620;80;21146;-71
2021/07/31 01:15:35;;;;;;;30.10;16.20;;;;;;;24.99;67.74;100955.97;1789885;80;21205;-72
2021/07/31 01:18:08;;;;;;;;;;;;;;;24.95;67.83;100953.58;1792400;80;21146;-74
2021/07/31 01:20:41;;;;;;;42.98;19.10;;;;;;;24.92;68.04;100955.11;1789691;80;20576;-70
2021/07/31 01:23:13;;;;;;;50.30;17.75;;;;;;;24.89;68.18;100952.13;1760543;81;21186;-71
2021/07/31 01:25:47;;;;;;;35.75;17.35;;;;;;;24.87;68.27;100948.82;1790194;78;21193;-75
2021/07/31 01:28:20;;;;;;;30.37;17.60;;;;;;;24.87;68.36;100951.66;1789730;79;21329;-73
2021/07/31 01:30:54;;;;;;;34.23;16.15;;;;;;;24.86;68.45;100950.00;1789630;79;21320;-75
2021/07/31 01:33:27;;;;;;;42.83;18.47;;;;;;;24.84;68.62;100952.34;1789897;79;21179;-73
2021/07/31 01:36:00;;;;;;;27.25;16.35;;;;;;;24.82;68.73;100951.27;1789527;79;22291;-74
2021/07/31 01:38:34;;;;;;;38.92;19.23;;;;;;;24.84;68.77;100950.92;1785716;79;21820;-74
2021/07/31 01:41:08;;;;;;;36.88;18.62;;;;;;;24.86;68.78;100951.43;1763494;80;21337;-74
2021/07/31 01:43:41;;;;;;;;;;;;;;;24.84;68.83;100943.82;1792163;80;21487;-75
2021/07/31 01:46:13;;;;;;;31.17;16.65;;;;;;;24.83;68.81;100946.42;1789657;79;20302;-75
2021/07/31 01:48:46;;;;;;;37.78;17.82;;;;;;;24.79;68.81;100953.98;1789680;79;21890;-74
2021/07/31 01:51:20;;;;;;;31.33;17.62;;;;;;;24.79;68.81;100955.40;1789607;80;21207;-74
2021/07/31 01:53:53;;;;;;;30.63;17.63;;;;;;;24.83;68.63;100952.11;1789769;79;21191;-74
2021/07/31 01:56:26;;;;;;;33.13;17.40;;;;;;;24.83;68.63;100952.11;1789668;79;21384;-74
2021/07/31 01:59:00;;;;;;;33.33;17.12;;;;;;;24.82;68.73;100956.95;1789709;80;21449;-73
2021/07/31 02:01:33;;;;;;;29.87;14.98;;;;;;;24.78;68.73;100956.01;1789738;80;21855;-74
2021/07/31 02:04:08;;;;;;;27.77;15.05;;;;;;;24.76;68.84;100953.27;1789642;80;21329;-75
2021/07/31 02:06:59;;;;;;;27.15;16.48;;;;;;;24.72;69.03;100946.61;1789550;80;21828;-74
2021/07/31 02:09:32;;;;;;;32.67;16.35;;;;;;;24.69;69.19;100955.84;1789806;79;21377;-74
2021/07/31 02:12:07;;;;;;;39.78;17.05;;;;;;;24.67;69.33;100962.45;1789613;79;21338;-75
2021/07/31 02:14:42;;;;;;;31.35;15.68;;;;;;;24.62;69.39;100959.84;1789392;80;21705;-71
2021/07/31 02:17:15;;;;;;;37.23;16.48;;;;;;;24.59;69.57;100957.68;1789266;80;21172;-70
2021/07/31 02:19:49;;;;;;;37.33;17.12;;;;;;;24.60;69.72;100966.44;1789285;80;21365;-74
2021/07/31 02:22:24;;;;;;;32.60;17.37;;;;;;;24.63;69.73;100960.08;1785813;80;21904;-69
2021/07/31 02:25:14;;;;;;;47.90;22.80;;;;;;;24.66;69.66;100964.47;1789314;80;21176;-66
2021/07/31 02:27:50;;;;;;;51.48;19.70;;;;;;;24.68;69.91;100964.14;1761550;80;21388;-68
2021/07/31 02:30:23;;;;;;;55.75;21.50;;;;;;;24.63;70.34;100959.47;1763410;78;21241;-75
2021/07/31 02:32:56;;;;;;;;;;;;;;;24.63;70.64;100957.23;1702777;84;21248;-73
2021/07/31 02:35:33;;;;;;;44.27;19.45;;;;;;;24.65;70.96;100959.98;1721225;82;20195;-73
2021/07/31 02:38:05;;;;;;;40.12;20.37;;;;;;;24.66;70.96;100963.05;1698326;83;21955;-71
2021/07/31 02:40:38;;;;;;;34.27;19.23;;;;;;;24.68;70.93;100966.98;1691006;85;21351;-71
2021/07/31 02:43:10;;;;;;;46.13;18.40;;;;;;;24.72;70.82;100969.34;1663224;86;21482;-71
2021/07/31 02:45:44;;;;;;;40.55;18.17;;;;;;;24.74;70.91;100968.42;1663454;86;21207;-73
2021/07/31 02:48:18;;;;;;;47.20;20.65;;;;;;;24.77;71.04;100974.24;1663205;86;21231;-73
2021/07/31 02:50:52;;;;;;;39.70;19.80;;;;;;;24.79;70.99;100983.23;1662924;86;21721;-70
2021/07/31 02:53:29;;;;;;;47.98;19.95;;;;;;;24.80;70.96;100984.08;1709021;83;21317;-72
2021/07/31 02:56:01;;;;;;;48.23;18.80;;;;;;;24.81;70.88;100982.29;1717733;83;21755;-72
2021/07/31 02:58:35;;;;;;;47.10;19.95;;;;;;;24.83;70.99;100982.80;1719825;83;21371;-73
2021/07/31 03:01:08;;;;;;;37.28;20.23;;;;;;;24.84;71.23;100983.03;1719934;83;21190;-71
2021/07/31 03:03:41;;;;;;;47.33;20.72;;;;;;;24.83;72.12;100987.63;1694823;83;21752;-72
2021/07/31 03:06:13;;;;;;;;;;;;;;;24.77;72.71;100987.60;1764053;78;21237;-75
2021/07/31 03:08:46;;;;;;;40.23;19.73;;;;;;;24.73;73.28;100990.89;1820217;79;20288;-74
2021/07/31 03:11:19;;;;;;;42.40;20.02;;;;;;;24.69;73.59;100989.94;1820205;79;21703;-75
2021/07/31 03:13:52;;;;;;;51.95;22.20;;;;;;;24.71;73.80;100987.58;1817439;79;21375;-75
2021/07/31 03:16:26;;;;;;;58.92;22.48;;;;;;;24.76;73.71;100983.11;1812675;79;21316;-76
2021/07/31 03:19:01;;;;;;;52.17;21.65;;;;;;;24.82;73.55;100987.39;1812568;79;21217;-76
2021/07/31 03:21:36;;;;;;;47.93;20.02;;;;;;;24.86;73.50;100987.77;1812797;79;21174;-73
2021/07/31 03:24:12;;;;;;;46.75;19.82;;;;;;;24.90;73.51;100990.16;1808564;78;21823;-74
2021/07/31 03:26:44;;;;;;;41.35;19.45;;;;;;;24.93;73.56;100987.22;1820198;79;21217;-79
2021/07/31 03:29:18;;;;;;;43.92;19.85;;;;;;;24.98;73.68;100992.08;1819421;79;21328;-77
2021/07/31 03:31:54;;;;;;;51.15;19.67;;;;;;;25.06;73.60;100994.00;1820667;79;21324;-75
2021/07/31 03:34:26;;;;;;;38.85;19.07;;;;;;;25.11;73.48;100992.97;1820252;79;21312;-74
2021/07/31 03:37:01;;;;;;;49.95;19.70;;;;;;;25.15;73.44;100991.06;1820010;79;21316;-75
2021/07/31 03:39:35;;;;;;;39.73;19.77;;;;;;;25.15;73.51;100983.38;1820313;79;21213;-70
2021/07/31 03:42:08;;;;;;;39.45;19.80;;;;;;;25.18;73.68;100988.96;1820256;79;21728;-74
2021/07/31 03:44:42;;;;;;;46.20;20.72;;;;;;;25.23;73.71;100991.59;1812420;79;21418;-69
2021/07/31 03:47:16;;;;;;;38.65;19.67;;;;;;;25.27;73.62;100988.30;1820222;79;21209;-73
2021/07/31 03:49:49;;;;;;;43.25;19.90;;;;;;;25.37;73.55;101000.05;1820188;79;21328;-75
2021/07/31 03:52:23;;;;;;;46.33;20.13;;;;;;;25.46;73.39;101002.80;1820332;79;21320;-74
2021/07/31 03:54:58;;;;;;;44.30;19.25;;;;;;;25.54;73.46;101009.81;1819879;79;21151;-69
2021/07/31 03:57:34;;;;;;;35.13;19.02;;;;;;;25.57;73.47;101010.55;1819896;79;21418;-69
2021/07/31 04:00:07;;;;;;;37.65;17.55;;;;;;;25.65;73.32;101011.02;1814811;78;21839;-70
2021/07/31 04:02:42;;;;;;;26.02;16.70;;;;;;;25.70;73.43;101017.06;1817596;79;21308;-73
2021/07/31 04:05:16;;;;;;;29.30;16.57;;;;;;;25.74;73.54;101010.91;1819475;79;21204;-70
2021/07/31 04:07:50;;;;;;;26.57;16.55;;;;;;;25.77;73.66;101007.34;1790175;80;21380;-72
2021/07/31 04:10:44;;;;;;;32.30;16.70;;;;;;;25.86;73.74;101015.20;1691138;85;21783;-70
2021/07/31 04:13:34;;;;;;;40.38;18.05;;;;;;;25.99;73.12;101019.16;1691168;85;21266;-70
2021/07/31 04:16:10;;;;;;;29.10;17.40;;;;;;;26.05;72.81;101015.47;1737825;80;21292;-71
2021/07/31 04:18:42;;;;;;;;;;;;;;;26.09;72.70;101024.36;1761168;80;21174;-71
2021/07/31 04:21:15;;;;;;;39.48;17.00;;;;;;;26.19;72.36;101017.36;1787218;80;20223;-70
2021/07/31 04:23:49;;;;;;;39.90;18.42;;;;;;;26.31;71.92;101021.62;1787209;80;21178;-71
2021/07/31 04:26:22;;;;;;;48.17;19.45;;;;;;;26.43;71.40;101021.60;1786954;80;21675;-69
2021/07/31 04:28:55;;;;;;;46.18;19.23;;;;;;;26.57;71.33;101020.69;1787162;80;21174;-69
2021/07/31 04:31:27;;;;;;;50.75;20.32;;;;;;;26.69;70.91;101024.94;1787292;80;21332;-68
2021/07/31 04:34:01;;;;;;;38.30;18.00;;;;;;;26.93;70.47;101027.68;1787391;80;21324;-69
2021/07/31 04:36:34;;;;;;;29.57;15.78;;;;;;;27.32;69.22;101026.84;1787210;80;22027;-73
2021/07/31 04:39:08;;;;;;;31.65;15.08;;;;;;;27.82;66.43;101025.03;1787547;80;21162;-72
2021/07/31 04:41:41;;;;;;;28.35;13.72;;;;;;;28.35;64.32;101028.60;1785255;80;21340;-73
2021/07/31 04:44:13;;;;;;;25.48;13.15;;;;;;;28.90;62.87;101033.42;1794552;80;21316;-72
2021/07/31 04:46:46;;;;;;;23.27;14.20;;;;;;;29.44;60.53;101034.78;1760823;80;21393;-69
2021/07/31 04:49:18;;;;;;;18.50;13.18;;;;;;;29.93;58.36;101030.86;1784908;80;21240;-71
2021/07/31 04:51:51;;;;;;;17.17;12.03;;;;;;;30.39;56.84;101028.17;1761476;80;21335;-74
2021/07/31 04:54:24;;;;;;;21.57;12.58;;;;;;;30.81;55.86;101038.89;1776514;80;21222;-73
2021/07/31 04:56:57;;;;;;;17.23;12.10;;;;;;;31.25;55.02;101025.59;1789530;80;21178;-73
2021/07/31 04:59:29;;;;;;;28.20;14.18;;;;;;;31.68;53.72;101029.16;1792131;80;21241;-76
2021/07/31 05:02:02;;;;;;;24.12;14.20;;;;;;;32.00;52.03;101029.48;1778861;79;23100;-71
2021/07/31 05:04:35;;;;;;;17.85;12.58;;;;;;;32.40;51.60;101030.89;1767958;80;21185;-74
2021/07/31 05:07:09;;;;;;;30.75;12.82;;;;;;;32.74;50.69;101030.91;1769496;80;21189;-68
2021/07/31 05:09:42;;;;;;;20.05;12.78;;;;;;;33.09;48.54;101027.66;1790352;80;21170;-75
2021/07/31 05:12:15;;;;;;;24.65;12.98;;;;;;;33.30;46.90;101024.88;1806277;79;21364;-73
2021/07/31 05:14:52;;;;;;;;;;;;;;;33.46;45.59;101016.71;1823694;79;21367;-79
2021/07/31 05:17:24;;;;;;;27.85;13.25;;;;;;;33.65;45.81;101021.27;1822725;79;20617;-72
2021/07/31 05:19:56;;;;;;;25.02;12.30;;;;;;;33.71;45.65;101021.08;1808617;78;21878;-72
2021/07/31 05:22:29;;;;;;;21.55;11.55;;;;;;;33.80;45.80;101026.69;1809609;79;21343;-77
2021/07/31 05:25:03;;;;;;;35.43;11.53;;;;;;;33.97;46.03;101033.10;1820678;79;21374;-71
2021/07/31 05:27:35;;;;;;;20.80;10.20;;;;;;;34.15;46.09;101036.82;1820527;79;21182;-72
2021/07/31 05:30:11;;;;;;;22.15;10.43;;;;;;;34.24;44.78;101035.81;1820418;79;21177;-73
2021/07/31 05:32:43;;;;;;;23.57;10.68;;;;;;;34.39;44.52;101030.25;1820503;79;21835;-70
2021/07/31 05:35:16;;;;;;;31.70;11.03;;;;;;;34.52;43.57;101025.70;1820750;79;21351;-73
2021/07/31 05:37:48;;;;;;;;;;;;;;;34.62;42.00;101028.36;1823096;79;21277;-73
2021/07/31 05:40:20;;;;;;;29.20;10.50;;;;;;;34.77;42.08;101022.81;1820569;79;20250;-74
2021/07/31 05:42:53;;;;;;;23.83;10.72;;;;;;;34.91;41.85;101032.88;1820714;79;21771;-73
2021/07/31 05:45:27;;;;;;;25.02;11.33;;;;;;;34.97;41.56;101026.27;1820322;79;21181;-73
2021/07/31 05:48:00;;;;;;;26.65;10.75;;;;;;;35.07;42.37;101031.80;1820533;79;21186;-72
2021/07/31 05:50:33;;;;;;;38.53;10.98;;;;;;;35.20;41.56;101027.20;1820711;79;21363;-72
2021/07/31 05:53:05;;;;;;;21.27;10.93;;;;;;;35.26;40.52;101026.36;1820764;79;21295;-73
2021/07/31 05:55:38;;;;;;;16.12;9.38;;;;;;;35.40;40.50;101024.88;1832725;77;21855;-73
2021/07/31 05:58:11;;;;;;;25.08;9.88;;;;;;;35.49;39.86;101020.08;1743305;81;21251;-74
2021/07/31 06:00:47;;;;;;;25.95;9.85;;;;;;;35.67;39.95;101016.43;1823695;78;21841;-73
2021/07/31 06:03:20;;;;;;;29.15;11.53;;;;;;;35.75;39.22;101018.89;1823821;77;21325;-74
2021/07/31 06:05:59;;;;;;;30.52;12.95;;;;;;;35.88;39.11;101011.36;1821077;79;21225;-72
2021/07/31 06:08:32;;;;;;;20.48;9.95;;;;;;;35.98;39.64;101017.70;1820221;77;21325;-71
2021/07/31 06:11:05;;;;;;;21.27;9.70;;;;;;;36.04;37.74;101018.09;1770044;80;21771;-72
2021/07/31 06:13:38;;;;;;;21.85;10.40;;;;;;;36.11;36.88;101020.92;1792243;80;21331;-77
2021/07/31 06:16:11;;;;;;;24.57;10.68;;;;;;;36.18;36.73;101015.91;1815334;79;21160;-72
2021/07/31 06:18:44;;;;;;;22.37;10.88;;;;;;;36.17;36.63;101023.59;1793553;80;21352;-73
2021/07/31 06:21:17;;;;;;;32.83;12.03;;;;;;;36.06;36.55;101025.06;1815756;79;21303;-71
2021/07/31 06:23:51;;;;;;;27.37;11.30;;;;;;;35.95;37.39;101030.75;1768656;78;21349;-73
2021/07/31 06:26:24;;;;;;;24.35;10.40;;;;;;;35.90;36.67;101032.64;1766360;81;21353;-74
2021/07/31 06:28:56;;;;;;;27.77;11.38;;;;;;;35.78;36.31;101036.02;1766680;81;21724;-72
2021/07/31 06:31:29;;;;;;;12.00;8.23;;;;;;;35.78;36.03;101029.63;1766413;81;21839;-72
2021/07/31 06:34:01;;;;;;;;;;;;;;;35.74;36.70;101037.50;1768821;81;21384;-73
2021/07/31 06:36:34;;;;;;;23.47;9.08;;;;;;;35.68;35.63;101042.05;1797645;80;20253;-73
2021/07/31 06:39:07;;;;;;;24.43;9.90;;;;;;;35.66;35.38;101035.88;1766285;81;21274;-72
2021/07/31 06:41:40;;;;;;;33.78;9.65;;;;;;;35.50;34.70;101034.09;1766134;81;21234;-74
2021/07/31 06:44:13;;;;;;;19.02;9.60;;;;;;;35.43;34.50;101035.58;1766252;81;21206;-74
2021/07/31 06:46:46;;;;;;;16.87;9.35;;;;;;;35.21;34.13;101038.32;1766329;81;21361;-73
2021/07/31 06:49:18;;;;;;;20.52;8.30;;;;;;;34.86;34.73;101038.47;1766383;81;21183;-73
2021/07/31 06:51:52;;;;;;;16.55;7.78;;;;;;;34.80;35.48;101038.69;1766155;81;21246;-72
2021/07/31 06:54:25;;;;;;;15.72;8.45;;;;;;;34.91;36.42;101032.27;1766216;81;21321;-72
2021/07/31 06:56:57;;;;;;;17.98;7.28;;;;;;;35.01;36.16;101037.17;1763000;77;21378;-70
2021/07/31 06:59:30;;;;;;;21.97;8.10;;;;;;;34.94;35.55;101034.30;1757693;81;21191;-72
2021/07/31 07:02:03;;;;;;;10.82;7.05;;;;;;;34.78;35.54;101038.89;1827888;78;21835;-75
2021/07/31 07:04:35;;;;;;;;;;;;;;;34.68;35.47;101037.65;1830578;78;21309;-71
2021/07/31 07:07:07;;;;;;;12.53;6.75;;;;;;;34.63;36.63;101036.63;1827809;78;20581;-71
2021/07/31 07:09:43;;;;;;;18.27;6.70;;;;;;;34.72;36.73;101034.75;1757764;81;21329;-74
2021/07/31 07:12:16;;;;;;;13.45;6.08;;;;;;;34.87;36.32;101032.89;1827787;78;21436;-70
2021/07/31 07:14:49;;;;;;;12.60;6.03;;;;;;;34.93;36.05;101031.22;1757651;81;21812;-72
2021/07/31 07:17:21;;;;;;;;;;;;;;;34.95;35.66;101038.03;1801367;78;21839;-71
2021/07/31 07:19:54;;;;;;;12.57;7.23;;;;;;;35.08;35.87;101034.25;1795290;80;20527;-71
2021/07/31 07:22:27;;;;;;;21.35;6.85;;;;;;;35.27;36.36;101032.34;1795152;79;21966;-70
2021/07/31 07:25:00;;;;;;;12.95;6.37;;;;;;;35.59;36.82;101024.35;1795632;80;21303;-72
2021/07/31 07:27:32;;;;;;;12.55;6.05;;;;;;;35.74;36.18;101027.37;1795569;80;21179;-71
2021/07/31 07:30:07;;;;;;;10.38;5.78;;;;;;;35.86;36.05;101026.08;1795203;80;21175;-76
2021/07/31 07:32:40;;;;;;;21.85;7.47;;;;;;;35.95;35.96;101020.02;1795475;78;21190;-76
2021/07/31 07:35:13;;;;;;;11.50;6.10;;;;;;;36.13;36.92;101022.75;1803874;78;21324;-81
2021/07/31 07:37:45;;;;;;;8.05;6.20;;;;;;;36.22;35.41;101025.39;1796554;79;21317;-71
2021/07/31 07:40:19;;;;;;;11.30;5.10;;;;;;;36.17;33.38;101030.19;1820648;78;21178;-69
2021/07/31 07:42:52;;;;;;;10.03;5.53;;;;;;;35.97;32.85;101027.63;1809615;79;21217;-80
2021/07/31 07:45:25;;;;;;;11.68;6.00;;;;;;;35.83;33.26;101024.84;1798010;80;21852;-77
2021/07/31 07:47:59;;;;;;;11.30;6.65;;;;;;;35.75;33.10;101029.02;1811922;79;21792;-72
2021/07/31 07:50:32;;;;;;;13.30;5.58;;;;;;;35.52;34.00;101020.06;1797915;80;21160;-76
2021/07/31 07:53:04;;;;;;;9.98;5.17;;;;;;;35.38;33.81;101022.20;1801529;79;21183;-74
2021/07/31 07:55:38;;;;;;;13.48;5.33;;;;;;;35.27;34.23;101016.45;1804721;78;21364;-75
2021/07/31 07:58:11;;;;;;;12.98;6.03;;;;;;;35.12;34.08;101022.06;1794425;80;21163;-75
2021/07/31 08:00:44;;;;;;;10.72;6.20;;;;;;;35.01;33.15;101028.50;1800988;78;21813;-73
2021/07/31 08:03:16;;;;;;;;;;;;;;;34.83;33.25;101021.15;1804162;79;21793;-88
2021/07/31 08:05:48;;;;;;;12.50;6.00;;;;;;;34.72;34.47;101018.88;1801083;79;20252;-74
2021/07/31 08:08:21;;;;;;;14.60;5.85;;;;;;;34.67;34.05;101021.56;1801388;78;21376;-74
2021/07/31 08:10:54;;;;;;;11.73;6.00;;;;;;;34.53;33.84;101019.32;1803529;78;21842;-71
2021/07/31 08:13:26;;;;;;;8.15;5.75;;;;;;;34.23;33.47;101017.45;1797633;78;21277;-70
2021/07/31 08:15:59;;;;;;;10.35;5.97;;;;;;;34.03;34.35;101013.34;1749889;81;21215;-70
2021/07/31 08:18:33;;;;;;;21.75;5.95;;;;;;;33.95;34.55;101019.72;1795611;80;21163;-70
2021/07/31 08:21:07;;;;;;;13.10;6.28;;;;;;;33.80;33.72;101018.67;1795748;79;21771;-70
2021/07/31 08:23:41;;;;;;;7.17;5.95;;;;;;;33.67;34.37;101023.95;1796156;80;21166;-70
2021/07/31 08:26:15;;;;;;;15.23;6.05;;;;;;;33.67;34.92;101018.83;1788839;77;21803;-76
2021/07/31 08:28:50;;;;;;;18.65;6.53;;;;;;;33.66;34.94;101022.31;1729074;80;21408;-73
2021/07/31 08:31:23;;;;;;;15.50;5.50;;;;;;;33.58;34.66;101014.89;1741967;82;21412;-75
2021/07/31 08:34:10;;;;;;;8.98;5.85;;;;;;;33.67;35.15;101016.75;1835702;76;27950;-76
2021/07/31 08:36:43;;;;;;;9.38;5.75;;;;;;;33.72;35.01;101017.80;1741924;82;21332;-74
2021/07/31 08:39:19;;;;;;;8.40;5.62;;;;;;;33.70;34.95;101021.71;1745314;82;21854;-75
2021/07/31 08:42:15;;;;;;;7.55;5.58;;;;;;;33.54;34.94;101023.33;1747733;81;21368;-73
2021/07/31 08:44:56;;;;;;;12.07;6.00;;;;;;;33.40;34.97;101016.90;1744354;82;21323;-73
2021/07/31 08:47:35;;;;;;;34.60;6.42;;;;;;;33.32;34.59;101016.64;1733449;82;21367;-76
2021/07/31 08:50:11;;;;;;;11.50;6.12;;;;;;;33.23;34.65;101017.63;1707113;83;21270;-73
2021/07/31 08:52:48;;;;;;;9.33;5.72;;;;;;;33.20;35.03;101017.02;1764088;81;21273;-74
2021/07/31 08:55:23;;;;;;;6.62;5.70;;;;;;;33.19;35.37;101023.17;1745469;82;21344;-75
2021/07/31 08:58:03;;;;;;;10.98;5.83;;;;;;;33.20;35.47;101020.48;1747644;81;21305;-75
2021/07/31 09:00:36;;;;;;;10.80;5.78;;;;;;;33.23;35.51;101019.06;1755887;81;21304;-78
2021/07/31 09:03:15;;;;;;;8.43;5.37;;;;;;;33.27;36.78;101017.06;1753169;81;21158;-77
2021/07/31 09:05:47;;;;;;;10.63;6.53;;;;;;;33.35;35.95;101017.29;1752909;81;21305;-76
2021/07/31 09:08:19;;;;;;;7.03;6.00;;;;;;;33.34;35.71;101024.29;1751547;81;21588;-75
2021/07/31 09:10:53;;;;;;;7.95;5.85;;;;;;;33.27;35.15;101017.66;1747736;81;21317;-76
2021/07/31 09:13:28;;;;;;;9.78;5.50;;;;;;;33.16;35.40;101019.64;1727340;82;21202;-75
2021/07/31 09:16:05;;;;;;;11.03;5.45;;;;;;;33.07;35.64;101022.89;1686791;81;21210;-79
2021/07/31 09:18:43;;;;;;;9.85;5.60;;;;;;;32.96;35.67;101017.72;1747593;81;21329;-75
2021/07/31 09:21:17;;;;;;;7.87;6.37;;;;;;;32.91;36.31;101013.78;1743070;81;21222;-76
2021/07/31 09:23:54;;;;;;;7.55;5.75;;;;;;;32.89;36.31;101010.46;1748843;81;21182;-76
2021/07/31 09:26:33;;;;;;;7.35;5.28;;;;;;;32.86;36.20;101010.45;1746098;81;21199;-79
2021/07/31 09:29:08;;;;;;;8.50;5.90;;;;;;;32.83;36.39;101016.39;1752386;81;21167;-75
2021/07/31 09:31:52;;;;;;;9.98;5.92;;;;;;;32.71;36.20;101006.63;1728704;82;21221;-74
2021/07/31 09:34:39;;;;;;;8.93;5.80;;;;;;;32.62;37.09;100999.58;1728269;81;21199;-76
2021/07/31 09:37:32;;;;;;;8.30;5.30;;;;;;;32.68;38.06;100999.41;1722752;82;21219;-77
2021/07/31 09:40:05;;;;;;;10.70;6.20;;;;;;;32.75;37.97;101005.23;1723243;82;21186;-78
2021/07/31 09:42:40;;;;;;;7.67;6.15;;;;;;;32.78;37.29;101003.84;1784910;79;21203;-77
2021/07/31 09:45:18;;;;;;;7.53;5.37;;;;;;;32.79;37.38;100994.58;1783138;79;21313;-77
2021/07/31 09:48:03;;;;;;;13.43;7.05;;;;;;;32.71;37.21;101000.06;1784493;79;21290;-78
2021/07/31 09:50:46;;;;;;;9.00;5.87;;;;;;;32.68;37.91;100994.50;1780499;79;21242;-76
2021/07/31 09:53:25;;;;;;;6.85;6.17;;;;;;;32.71;37.66;101000.06;1770119;80;21218;-78
2021/07/31 09:55:59;;;;;;;7.65;6.05;;;;;;;32.66;37.81;100989.77;1770570;80;21278;-80
2021/07/31 09:58:32;;;;;;;9.58;7.25;;;;;;;32.56;37.73;100999.15;1768021;81;21184;-76
2021/07/31 10:01:05;;;;;;;9.03;6.30;;;;;;;32.51;37.50;100990.08;1769368;79;21400;-79
2021/07/31 10:03:39;;;;;;;7.75;6.37;;;;;;;32.43;38.04;100988.36;1734042;83;21356;-77
2021/07/31 10:06:13;;;;;;;12.40;6.95;;;;;;;32.40;38.73;100992.86;1733887;81;21324;-76
2021/07/31 10:08:47;;;;;;;7.75;6.47;;;;;;;32.32;38.75;100991.17;1731089;82;21928;-80
2021/07/31 10:11:20;;;;;;;7.92;6.17;;;;;;;32.35;39.17;100981.76;1721323;82;21365;-77
2021/07/31 10:13:53;;;;;;;12.93;6.87;;;;;;;32.41;39.30;100981.59;1706103;83;21191;-79
2021/07/31 10:16:27;;;;;;;7.15;6.20;;;;;;;32.42;38.71;100977.48;1698611;84;21732;-75
2021/07/31 10:19:09;;;;;;;10.80;7.10;;;;;;;32.37;38.64;100972.70;1700560;83;21175;-76
2021/07/31 10:22:00;;;;;;;9.28;6.75;;;;;;;32.32;37.91;100975.35;1701332;83;21344;-77
2021/07/31 10:27:33;;;;;;;10.68;6.72;;;;;;;32.19;38.13;100966.80;1709706;83;21947;-77
2021/07/31 10:30:28;;;;;;;15.72;6.83;;;;;;;32.08;39.19;100961.58;1710822;83;21881;-77
2021/07/31 10:33:01;;;;;;;7.28;6.20;;;;;;;32.06;39.60;100964.64;1766946;79;21345;-76
2021/07/31 10:35:39;;;;;;;7.33;5.87;;;;;;;32.04;38.63;100966.47;1702412;83;21797;-77
2021/07/31 10:38:12;;;;;;;8.60;6.70;;;;;;;31.98;38.21;100962.34;1708829;83;21749;-75
2021/07/31 10:40:45;;;;;;;13.53;6.72;;;;;;;31.86;38.88;100957.50;1714782;83;21967;-75
2021/07/31 10:43:18;;;;;;;11.22;6.12;;;;;;;31.78;39.34;100950.05;1710952;83;21185;-76
2021/07/31 10:45:51;;;;;;;12.47;7.15;;;;;;;31.74;39.25;100954.92;1695773;83;21281;-74
2021/07/31 10:48:29;;;;;;;15.23;6.85;;;;;;;31.69;40.86;100954.66;1694710;83;21368;-75
2021/07/31 10:51:02;;;;;;;13.62;6.87;;;;;;;31.70;40.49;100959.77;1704647;83;21194;-76
2021/07/31 10:53:48;;;;;;;11.63;6.65;;;;;;;31.65;39.54;100956.66;1720542;79;21182;-73
2021/07/31 10:56:21;;;;;;;10.28;6.22;;;;;;;31.57;39.03;100957.82;1775223;79;21159;-74
2021/07/31 10:59:16;;;;;;;8.50;6.33;;;;;;;31.49;38.98;100966.13;1770644;80;21819;-73
2021/07/31 11:01:50;;;;;;;8.55;6.45;;;;;;;31.41;39.05;100960.11;1776440;80;21820;-75
2021/07/31 11:05:01;;;;;;;9.18;6.05;;;;;;;31.35;39.89;100944.45;1785597;79;21690;-73
2021/07/31 11:07:39;;;;;;;12.68;7.40;;;;;;;31.36;39.71;100949.59;1768535;80;21156;-74
2021/07/31 11:10:45;;;;;;;9.63;7.35;;;;;;;31.37;41.18;100952.05;1744453;80;21313;-73
2021/07/31 11:13:23;;;;;;;18.12;7.83;;;;;;;31.41;41.30;100952.92;1768733;81;21337;-74
2021/07/31 11:16:15;;;;;;;20.15;7.67;;;;;;;31.43;41.43;100952.54;1768706;81;21436;-79
2021/07/31 11:18:58;;;;;;;15.98;8.18;;;;;;;31.43;40.94;100944.73;1774053;78;21365;-76
2021/07/31 11:21:39;;;;;;;18.07;8.23;;;;;;;31.43;41.18;100944.73;1753123;80;21275;-76
2021/07/31 11:24:17;;;;;;;14.73;9.75;;;;;;;31.39;41.98;100942.45;1791759;79;21332;-77
2021/07/31 11:26:50;;;;;;;15.00;7.50;;;;;;;31.30;42.67;100937.63;1787151;78;21174;-72
2021/07/31 11:29:27;;;;;;;13.65;6.95;;;;;;;31.24;41.44;100937.77;1780523;80;21317;-73
2021/07/31 11:34:44;;;;;;;25.15;11.05;;;;;;;31.10;41.96;100936.74;1779753;80;21298;-74
2021/07/31 11:37:17;;;;;;;38.67;15.98;;;;;;;31.04;43.44;100946.33;1799797;79;21333;-73
2021/07/31 11:40:06;;;;;;;26.15;14.43;;;;;;;30.99;45.05;100943.80;1781583;79;21816;-79
2021/07/31 11:42:40;;;;;;;13.80;7.30;;;;;;;30.96;45.30;100953.22;1680729;85;21369;-77
2021/07/31 11:45:13;;;;;;;19.12;7.35;;;;;;;30.89;42.63;100946.55;1679745;84;21372;-84
2021/07/31 11:47:46;;;;;;;12.00;6.62;;;;;;;30.82;43.09;100953.64;1682740;83;21341;-74
2021/07/31 11:50:20;;;;;;;25.17;13.05;;;;;;;30.75;42.54;100951.48;1690988;84;21748;-76
2021/07/31 11:52:53;;;;;;;24.30;14.18;;;;;;;30.73;44.32;100949.63;1668593;84;21214;-76
2021/07/31 11:55:26;;;;;;;21.87;10.72;;;;;;;30.69;44.03;100956.55;1684419;84;21703;-82
2021/07/31 11:58:00;;;;;;;12.05;6.65;;;;;;;30.66;43.44;100950.98;1689763;83;21234;-77